sensor_id;sensor_type;location;lat;lon;timestamp;pressure;altitude;pressure_sealevel;temperature;humidity
2268;BME280;11052;43.338;25.502;2023-03-13T00:00:01;101117.56;;;3.78;100.00
2268;BME280;11052;43.338;25.502;2023-03-13T00:02:31;101126.13;;;3.78;100.00
2268;BME280;11052;43.338;25.502;2023-03-13T00:04:58;101121.84;;;3.79;100.00
2268;BME280;11052;43.338;25.502;2023-03-13T00:07:26;101135.50;;;3.78;100.00
2268;BME280;11052;43.338;25.502;2023-03-13T00:09:53;101132.88;;;3.72;100.00
2268;BME280;11052;43.338;25.502;2023-03-13T00:12:20;101131.97;;;3.67;100.00
2268;BME280;11052;43.338;25.502;2023-03-13T00:14:48;101137.03;;;3.62;100.00
2268;BME280;11052;43.338;25.502;2023-03-13T00:17:15;101139.53;;;3.56;100.00
2268;BME280;11052;43.338;25.502;2023-03-13T00:19:42;101137.75;;;3.50;100.00
2268;BME280;11052;43.338;25.502;2023-03-13T00:22:09;101142.00;;;3.48;100.00
2268;BME280;11052;43.338;25.502;2023-03-13T00:24:37;101143.69;;;3.45;100.00
2268;BME280;11052;43.338;25.502;2023-03-13T00:27:04;101147.88;;;3.38;100.00
2268;BME280;11052;43.338;25.502;2023-03-13T00:32:39;101145.97;;;3.23;100.00
2268;BME280;11052;43.338;25.502;2023-03-13T00:35:07;101146.72;;;3.16;100.00
2268;BME280;11052;43.338;25.502;2023-03-13T00:37:34;101146.69;;;3.13;100.00
2268;BME280;11052;43.338;25.502;2023-03-13T00:40:03;101143.19;;;3.07;100.00
2268;BME280;11052;43.338;25.502;2023-03-13T00:42:30;101143.06;;;2.99;100.00
2268;BME280;11052;43.338;25.502;2023-03-13T00:44:58;101143.81;;;2.92;100.00
2268;BME280;11052;43.338;25.502;2023-03-13T00:47:25;101140.13;;;2.73;100.00
2268;BME280;11052;43.338;25.502;2023-03-13T00:49:52;101145.25;;;2.73;100.00
2268;BME280;11052;43.338;25.502;2023-03-13T00:52:19;101150.28;;;2.67;100.00
2268;BME280;11052;43.338;25.502;2023-03-13T00:54:46;101141.59;;;2.56;100.00
2268;BME280;11052;43.338;25.502;2023-03-13T00:57:14;101138.00;;;2.45;100.00
2268;BME280;11052;43.338;25.502;2023-03-13T00:59:41;101136.97;;;2.35;100.00
2268;BME280;11052;43.338;25.502;2023-03-13T01:02:09;101136.03;;;2.30;100.00
2268;BME280;11052;43.338;25.502;2023-03-13T01:04:36;101140.25;;;2.26;100.00
2268;BME280;11052;43.338;25.502;2023-03-13T01:07:03;101137.59;;;2.22;100.00
2268;BME280;11052;43.338;25.502;2023-03-13T01:09:30;101137.47;;;2.14;100.00
2268;BME280;11052;43.338;25.502;2023-03-13T01:11:57;101137.56;;;2.19;100.00
2268;BME280;11052;43.338;25.502;2023-03-13T01:14:26;101132.38;;;2.16;100.00
2268;BME280;11052;43.338;25.502;2023-03-13T01:16:53;101140.88;;;2.13;100.00
2268;BME280;11052;43.338;25.502;2023-03-13T01:19:20;101141.66;;;2.11;100.00
2268;BME280;11052;43.338;25.502;2023-03-13T01:21:47;101145.03;;;2.08;100.00
2268;BME280;11052;43.338;25.502;2023-03-13T01:24:14;101143.91;;;1.94;100.00
2268;BME280;11052;43.338;25.502;2023-03-13T01:26:43;101142.13;;;1.90;100.00
2268;BME280;11052;43.338;25.502;2023-03-13T01:29:10;101143.97;;;1.97;100.00
2268;BME280;11052;43.338;25.502;2023-03-13T01:31:39;101147.25;;;1.90;100.00
2268;BME280;11052;43.338;25.502;2023-03-13T01:34:06;101151.38;;;1.83;100.00
2268;BME280;11052;43.338;25.502;2023-03-13T01:36:35;101148.97;;;1.91;100.00
2268;BME280;11052;43.338;25.502;2023-03-13T01:39:04;101154.22;;;1.98;100.00
2268;BME280;11052;43.338;25.502;2023-03-13T01:41:31;101157.50;;;1.91;100.00
2268;BME280;11052;43.338;25.502;2023-03-13T01:43:59;101159.97;;;1.87;100.00
2268;BME280;11052;43.338;25.502;2023-03-13T01:46:26;101161.50;;;1.77;100.00
2268;BME280;11052;43.338;25.502;2023-03-13T01:48:59;101164.78;;;1.70;100.00
2268;BME280;11052;43.338;25.502;2023-03-13T01:51:28;101164.56;;;1.59;100.00
2268;BME280;11052;43.338;25.502;2023-03-13T01:54:00;101154.81;;;1.40;100.00
2268;BME280;11052;43.338;25.502;2023-03-13T01:56:33;101171.13;;;1.47;100.00
2268;BME280;11052;43.338;25.502;2023-03-13T01:59:04;101177.84;;;1.43;100.00
2268;BME280;11052;43.338;25.502;2023-03-13T02:01:33;101177.06;;;1.46;100.00
2268;BME280;11052;43.338;25.502;2023-03-13T02:04:02;101176.94;;;1.40;100.00
2268;BME280;11052;43.338;25.502;2023-03-13T02:06:32;101181.28;;;1.44;100.00
2268;BME280;11052;43.338;25.502;2023-03-13T02:09:02;101180.69;;;1.57;100.00
2268;BME280;11052;43.338;25.502;2023-03-13T02:11:41;101180.66;;;1.55;100.00
2268;BME280;11052;43.338;25.502;2023-03-13T02:14:11;101179.22;;;1.68;100.00
2268;BME280;11052;43.338;25.502;2023-03-13T02:16:39;101196.28;;;1.69;100.00
2268;BME280;11052;43.338;25.502;2023-03-13T02:19:17;101194.47;;;1.63;100.00
2268;BME280;11052;43.338;25.502;2023-03-13T02:21:49;101201.00;;;1.51;100.00
2268;BME280;11052;43.338;25.502;2023-03-13T02:24:23;101194.97;;;1.47;100.00
2268;BME280;11052;43.338;25.502;2023-03-13T02:26:55;101202.50;;;1.41;100.00
2268;BME280;11052;43.338;25.502;2023-03-13T02:29:23;101198.31;;;1.45;100.00
2268;BME280;11052;43.338;25.502;2023-03-13T02:31:51;101210.09;;;1.38;100.00
2268;BME280;11052;43.338;25.502;2023-03-13T02:34:20;101215.03;;;1.30;100.00
2268;BME280;11052;43.338;25.502;2023-03-13T02:36:50;101216.88;;;1.36;100.00
2268;BME280;11052;43.338;25.502;2023-03-13T02:39:19;101215.84;;;1.28;100.00
2268;BME280;11052;43.338;25.502;2023-03-13T02:41:47;101218.25;;;1.22;100.00
2268;BME280;11052;43.338;25.502;2023-03-13T02:44:16;101227.31;;;0.73;100.00
2268;BME280;11052;43.338;25.502;2023-03-13T02:46:44;101229.66;;;0.64;100.00
2268;BME280;11052;43.338;25.502;2023-03-13T02:49:23;101225.47;;;0.68;100.00
2268;BME280;11052;43.338;25.502;2023-03-13T02:51:52;101224.06;;;0.79;100.00
2268;BME280;11052;43.338;25.502;2023-03-13T02:54:22;101231.84;;;0.83;100.00
2268;BME280;11052;43.338;25.502;2023-03-13T02:56:53;101232.44;;;0.73;100.00
2268;BME280;11052;43.338;25.502;2023-03-13T02:59:23;101247.31;;;0.56;100.00
2268;BME280;11052;43.338;25.502;2023-03-13T03:01:50;101246.16;;;0.45;100.00
2268;BME280;11052;43.338;25.502;2023-03-13T03:04:19;101251.72;;;0.62;100.00
2268;BME280;11052;43.338;25.502;2023-03-13T03:06:47;101258.78;;;0.72;100.00
2268;BME280;11052;43.338;25.502;2023-03-13T03:09:15;101250.38;;;0.76;100.00
2268;BME280;11052;43.338;25.502;2023-03-13T03:11:42;101253.59;;;0.69;100.00
2268;BME280;11052;43.338;25.502;2023-03-13T03:14:09;101250.53;;;0.82;100.00
2268;BME280;11052;43.338;25.502;2023-03-13T03:16:38;101256.44;;;0.81;100.00
2268;BME280;11052;43.338;25.502;2023-03-13T03:19:06;101260.50;;;0.73;100.00
2268;BME280;11052;43.338;25.502;2023-03-13T03:21:33;101265.59;;;0.73;100.00
2268;BME280;11052;43.338;25.502;2023-03-13T03:24:00;101278.13;;;0.64;100.00
2268;BME280;11052;43.338;25.502;2023-03-13T03:26:28;101289.56;;;0.47;100.00
2268;BME280;11052;43.338;25.502;2023-03-13T03:28:55;101284.53;;;0.18;100.00
2268;BME280;11052;43.338;25.502;2023-03-13T03:31:22;101287.63;;;0.38;100.00
2268;BME280;11052;43.338;25.502;2023-03-13T03:33:51;101301.31;;;0.42;100.00
2268;BME280;11052;43.338;25.502;2023-03-13T03:36:20;101300.94;;;0.28;100.00
2268;BME280;11052;43.338;25.502;2023-03-13T03:38:48;101308.72;;;0.32;100.00
2268;BME280;11052;43.338;25.502;2023-03-13T03:41:15;101318.34;;;0.43;100.00
2268;BME280;11052;43.338;25.502;2023-03-13T03:43:44;101318.19;;;0.37;100.00
2268;BME280;11052;43.338;25.502;2023-03-13T03:46:12;101315.72;;;0.40;100.00
2268;BME280;11052;43.338;25.502;2023-03-13T03:48:39;101320.09;;;0.44;100.00
2268;BME280;11052;43.338;25.502;2023-03-13T03:51:08;101325.63;;;0.29;100.00
2268;BME280;11052;43.338;25.502;2023-03-13T03:53:35;101335.56;;;0.20;100.00
2268;BME280;11052;43.338;25.502;2023-03-13T03:56:02;101340.94;;;0.00;100.00
2268;BME280;11052;43.338;25.502;2023-03-13T03:58:29;101344.94;;;-0.09;100.00
2268;BME280;11052;43.338;25.502;2023-03-13T04:00:57;101350.78;;;-0.40;100.00
2268;BME280;11052;43.338;25.502;2023-03-13T04:03:25;101351.47;;;-0.17;100.00
2268;BME280;11052;43.338;25.502;2023-03-13T04:05:52;101351.88;;;-0.59;100.00
2268;BME280;11052;43.338;25.502;2023-03-13T04:08:21;101353.50;;;-0.34;100.00
2268;BME280;11052;43.338;25.502;2023-03-13T04:10:48;101367.22;;;-0.30;100.00
2268;BME280;11052;43.338;25.502;2023-03-13T04:13:18;101359.84;;;-0.21;100.00
2268;BME280;11052;43.338;25.502;2023-03-13T04:15:45;101357.69;;;-0.09;100.00
2268;BME280;11052;43.338;25.502;2023-03-13T04:18:13;101354.44;;;-0.04;100.00
2268;BME280;11052;43.338;25.502;2023-03-13T04:20:41;101362.13;;;-0.02;100.00
2268;BME280;11052;43.338;25.502;2023-03-13T04:23:08;101358.41;;;-0.13;100.00
2268;BME280;11052;43.338;25.502;2023-03-13T04:25:37;101363.03;;;-0.28;100.00
2268;BME280;11052;43.338;25.502;2023-03-13T04:28:04;101370.56;;;-0.31;100.00
2268;BME280;11052;43.338;25.502;2023-03-13T04:30:31;101378.88;;;-0.37;100.00
2268;BME280;11052;43.338;25.502;2023-03-13T04:32:58;101380.56;;;-0.38;100.00
2268;BME280;11052;43.338;25.502;2023-03-13T04:35:25;101385.31;;;-0.48;100.00
2268;BME280;11052;43.338;25.502;2023-03-13T04:37:53;101390.31;;;-0.51;100.00
2268;BME280;11052;43.338;25.502;2023-03-13T04:40:20;101393.88;;;-0.46;100.00
2268;BME280;11052;43.338;25.502;2023-03-13T04:42:48;101399.22;;;-0.39;100.00
2268;BME280;11052;43.338;25.502;2023-03-13T04:45:15;101410.63;;;-0.27;100.00
2268;BME280;11052;43.338;25.502;2023-03-13T04:47:42;101412.44;;;-0.23;100.00
2268;BME280;11052;43.338;25.502;2023-03-13T04:50:10;101409.84;;;-0.25;100.00
2268;BME280;11052;43.338;25.502;2023-03-13T04:52:37;101408.41;;;-0.17;100.00
2268;BME280;11052;43.338;25.502;2023-03-13T04:55:05;101414.78;;;-0.03;100.00
2268;BME280;11052;43.338;25.502;2023-03-13T04:57:32;101410.03;;;0.38;100.00
2268;BME280;11052;43.338;25.502;2023-03-13T05:00:00;101410.38;;;0.80;100.00
2268;BME280;11052;43.338;25.502;2023-03-13T05:02:29;101418.63;;;1.35;100.00
2268;BME280;11052;43.338;25.502;2023-03-13T05:04:57;101414.44;;;1.73;100.00
2268;BME280;11052;43.338;25.502;2023-03-13T05:07:24;101421.19;;;2.07;100.00
2268;BME280;11052;43.338;25.502;2023-03-13T05:09:51;101421.06;;;2.40;100.00
2268;BME280;11052;43.338;25.502;2023-03-13T05:12:18;101421.56;;;2.66;96.66
2268;BME280;11052;43.338;25.502;2023-03-13T05:14:45;101414.28;;;2.85;94.11
2268;BME280;11052;43.338;25.502;2023-03-13T05:17:13;101415.56;;;3.09;92.49
2268;BME280;11052;43.338;25.502;2023-03-13T05:19:42;101408.88;;;3.15;92.75
2268;BME280;11052;43.338;25.502;2023-03-13T05:22:09;101411.78;;;3.35;92.31
2268;BME280;11052;43.338;25.502;2023-03-13T05:24:36;101417.09;;;3.49;92.25
2268;BME280;11052;43.338;25.502;2023-03-13T05:27:03;101417.28;;;3.59;92.35
2268;BME280;11052;43.338;25.502;2023-03-13T05:29:30;101421.56;;;3.59;91.51
2268;BME280;11052;43.338;25.502;2023-03-13T05:31:57;101429.03;;;3.47;92.83
2268;BME280;11052;43.338;25.502;2023-03-13T05:34:26;101431.09;;;3.68;95.05
2268;BME280;11052;43.338;25.502;2023-03-13T05:36:53;101435.50;;;3.76;93.67
2268;BME280;11052;43.338;25.502;2023-03-13T05:39:20;101441.03;;;4.02;91.54
2268;BME280;11052;43.338;25.502;2023-03-13T05:41:47;101436.22;;;4.23;93.62
2268;BME280;11052;43.338;25.502;2023-03-13T05:44:15;101442.53;;;4.50;91.36
2268;BME280;11052;43.338;25.502;2023-03-13T05:46:42;101442.69;;;4.60;89.97
2268;BME280;11052;43.338;25.502;2023-03-13T05:49:09;101445.31;;;4.65;90.42
2268;BME280;11052;43.338;25.502;2023-03-13T05:51:37;101440.59;;;5.00;88.76
2268;BME280;11052;43.338;25.502;2023-03-13T05:54:04;101445.16;;;5.30;85.94
2268;BME280;11052;43.338;25.502;2023-03-13T05:56:32;101443.69;;;5.55;84.60
2268;BME280;11052;43.338;25.502;2023-03-13T05:58:59;101448.19;;;5.79;85.64
2268;BME280;11052;43.338;25.502;2023-03-13T06:01:26;101452.59;;;5.90;82.44
2268;BME280;11052;43.338;25.502;2023-03-13T06:03:53;101448.22;;;5.83;81.17
2268;BME280;11052;43.338;25.502;2023-03-13T06:06:20;101445.47;;;5.64;82.51
2268;BME280;11052;43.338;25.502;2023-03-13T06:08:50;101449.75;;;5.62;86.12
2268;BME280;11052;43.338;25.502;2023-03-13T06:11:17;101443.50;;;5.35;85.06
2268;BME280;11052;43.338;25.502;2023-03-13T06:13:44;101447.09;;;5.51;87.36
2268;BME280;11052;43.338;25.502;2023-03-13T06:16:12;101446.38;;;5.69;88.22
2268;BME280;11052;43.338;25.502;2023-03-13T06:18:39;101452.63;;;5.95;85.50
2268;BME280;11052;43.338;25.502;2023-03-13T06:21:06;101452.72;;;6.10;83.75
2268;BME280;11052;43.338;25.502;2023-03-13T06:23:34;101452.50;;;5.84;82.68
2268;BME280;11052;43.338;25.502;2023-03-13T06:26:02;101445.53;;;5.68;86.78
2268;BME280;11052;43.338;25.502;2023-03-13T06:28:30;101452.72;;;6.13;87.07
2268;BME280;11052;43.338;25.502;2023-03-13T06:31:00;101445.31;;;6.65;82.56
2268;BME280;11052;43.338;25.502;2023-03-13T06:33:27;101448.00;;;7.12;79.13
2268;BME280;11052;43.338;25.502;2023-03-13T06:35:55;101445.47;;;7.21;80.01
2268;BME280;11052;43.338;25.502;2023-03-13T06:38:23;101433.44;;;7.36;78.05
2268;BME280;11052;43.338;25.502;2023-03-13T06:40:50;101433.41;;;7.10;76.52
2268;BME280;11052;43.338;25.502;2023-03-13T06:43:19;101441.09;;;6.95;78.44
2268;BME280;11052;43.338;25.502;2023-03-13T06:45:47;101430.91;;;7.57;80.34
2268;BME280;11052;43.338;25.502;2023-03-13T06:48:14;101430.00;;;7.82;75.61
2268;BME280;11052;43.338;25.502;2023-03-13T06:50:41;101436.91;;;7.51;74.47
2268;BME280;11052;43.338;25.502;2023-03-13T06:53:13;101427.41;;;7.24;76.71
2268;BME280;11052;43.338;25.502;2023-03-13T06:55:41;101433.44;;;7.36;78.33
2268;BME280;11052;43.338;25.502;2023-03-13T06:58:08;101432.56;;;8.07;77.32
2268;BME280;11052;43.338;25.502;2023-03-13T07:00:37;101425.69;;;7.89;76.92
2268;BME280;11052;43.338;25.502;2023-03-13T07:03:08;101426.53;;;8.12;76.69
2268;BME280;11052;43.338;25.502;2023-03-13T07:05:35;101428.97;;;8.67;77.69
2268;BME280;11052;43.338;25.502;2023-03-13T07:08:02;101427.13;;;8.87;75.11
2268;BME280;11052;43.338;25.502;2023-03-13T07:10:30;101425.25;;;9.20;75.68
2268;BME280;11052;43.338;25.502;2023-03-13T07:12:57;101425.72;;;9.68;73.62
2268;BME280;11052;43.338;25.502;2023-03-13T07:15:24;101420.31;;;9.94;72.46
2268;BME280;11052;43.338;25.502;2023-03-13T07:17:52;101411.00;;;9.74;71.66
2268;BME280;11052;43.338;25.502;2023-03-13T07:20:22;101423.06;;;9.75;70.65
2268;BME280;11052;43.338;25.502;2023-03-13T07:22:50;101421.94;;;10.05;74.88
2268;BME280;11052;43.338;25.502;2023-03-13T07:25:18;101412.00;;;10.47;69.10
2268;BME280;11052;43.338;25.502;2023-03-13T07:27:45;101406.81;;;10.45;68.09
2268;BME280;11052;43.338;25.502;2023-03-13T07:30:16;101403.66;;;10.24;65.86
2268;BME280;11052;43.338;25.502;2023-03-13T07:32:43;101416.31;;;10.48;66.44
2268;BME280;11052;43.338;25.502;2023-03-13T07:35:12;101416.66;;;10.88;66.10
2268;BME280;11052;43.338;25.502;2023-03-13T07:37:39;101413.41;;;11.32;68.23
2268;BME280;11052;43.338;25.502;2023-03-13T07:40:07;101400.91;;;11.57;66.65
2268;BME280;11052;43.338;25.502;2023-03-13T07:42:35;101407.31;;;11.90;64.93
2268;BME280;11052;43.338;25.502;2023-03-13T07:45:02;101403.59;;;12.03;64.75
2268;BME280;11052;43.338;25.502;2023-03-13T07:47:29;101403.84;;;12.34;65.94
2268;BME280;11052;43.338;25.502;2023-03-13T07:49:56;101401.91;;;12.45;63.42
2268;BME280;11052;43.338;25.502;2023-03-13T07:52:25;101394.00;;;12.50;62.76
2268;BME280;11052;43.338;25.502;2023-03-13T07:54:52;101393.75;;;12.62;63.70
2268;BME280;11052;43.338;25.502;2023-03-13T07:57:20;101399.56;;;12.75;62.88
2268;BME280;11052;43.338;25.502;2023-03-13T07:59:47;101395.41;;;12.66;64.28
2268;BME280;11052;43.338;25.502;2023-03-13T08:02:14;101397.88;;;12.72;60.14
2268;BME280;11052;43.338;25.502;2023-03-13T08:04:41;101399.28;;;12.87;62.95
2268;BME280;11052;43.338;25.502;2023-03-13T08:07:09;101406.31;;;12.84;59.70
2268;BME280;11052;43.338;25.502;2023-03-13T08:09:37;101395.34;;;12.69;62.48
2268;BME280;11052;43.338;25.502;2023-03-13T08:12:06;101400.22;;;12.85;63.16
2268;BME280;11052;43.338;25.502;2023-03-13T08:14:34;101395.81;;;12.88;58.09
2268;BME280;11052;43.338;25.502;2023-03-13T08:17:01;101395.88;;;12.85;59.31
2268;BME280;11052;43.338;25.502;2023-03-13T08:19:28;101394.00;;;13.29;60.87
2268;BME280;11052;43.338;25.502;2023-03-13T08:21:55;101403.56;;;13.28;60.58
2268;BME280;11052;43.338;25.502;2023-03-13T08:24:22;101390.03;;;13.11;60.03
2268;BME280;11052;43.338;25.502;2023-03-13T08:26:51;101392.25;;;13.29;62.03
2268;BME280;11052;43.338;25.502;2023-03-13T08:29:18;101390.00;;;13.12;54.96
2268;BME280;11052;43.338;25.502;2023-03-13T08:31:49;101384.91;;;13.47;61.87
2268;BME280;11052;43.338;25.502;2023-03-13T08:34:17;101382.81;;;13.61;59.54
2268;BME280;11052;43.338;25.502;2023-03-13T08:36:45;101373.72;;;13.41;59.04
2268;BME280;11052;43.338;25.502;2023-03-13T08:39:13;101370.81;;;13.18;56.43
2268;BME280;11052;43.338;25.502;2023-03-13T08:41:40;101374.38;;;13.51;60.88
2268;BME280;11052;43.338;25.502;2023-03-13T08:44:10;101367.03;;;13.67;61.55
2268;BME280;11052;43.338;25.502;2023-03-13T08:46:37;101368.06;;;13.92;60.63
2268;BME280;11052;43.338;25.502;2023-03-13T08:49:06;101372.00;;;14.07;58.25
2268;BME280;11052;43.338;25.502;2023-03-13T08:51:34;101371.41;;;13.97;55.70
2268;BME280;11052;43.338;25.502;2023-03-13T08:54:02;101367.84;;;14.00;54.29
2268;BME280;11052;43.338;25.502;2023-03-13T08:56:29;101368.44;;;13.78;52.92
2268;BME280;11052;43.338;25.502;2023-03-13T08:58:58;101364.13;;;13.77;53.93
2268;BME280;11052;43.338;25.502;2023-03-13T09:01:29;101364.53;;;13.62;52.82
2268;BME280;11052;43.338;25.502;2023-03-13T09:03:57;101365.44;;;13.61;52.85
2268;BME280;11052;43.338;25.502;2023-03-13T09:06:24;101365.22;;;13.69;58.48
2268;BME280;11052;43.338;25.502;2023-03-13T09:08:52;101356.38;;;14.07;58.78
2268;BME280;11052;43.338;25.502;2023-03-13T09:11:20;101358.44;;;13.94;55.88
2268;BME280;11052;43.338;25.502;2023-03-13T09:13:48;101351.19;;;14.05;57.93
2268;BME280;11052;43.338;25.502;2023-03-13T09:16:18;101354.38;;;13.86;55.60
2268;BME280;11052;43.338;25.502;2023-03-13T09:18:47;101359.69;;;13.81;53.99
2268;BME280;11052;43.338;25.502;2023-03-13T09:21:15;101346.50;;;13.55;55.50
2268;BME280;11052;43.338;25.502;2023-03-13T09:23:43;101348.91;;;13.93;57.15
2268;BME280;11052;43.338;25.502;2023-03-13T09:26:13;101341.50;;;14.10;55.09
2268;BME280;11052;43.338;25.502;2023-03-13T09:28:41;101344.03;;;13.83;53.83
2268;BME280;11052;43.338;25.502;2023-03-13T09:31:09;101342.22;;;14.16;55.81
2268;BME280;11052;43.338;25.502;2023-03-13T09:33:36;101336.84;;;14.22;52.88
2268;BME280;11052;43.338;25.502;2023-03-13T09:36:06;101331.84;;;14.45;53.59
2268;BME280;11052;43.338;25.502;2023-03-13T09:38:33;101332.25;;;14.61;56.95
2268;BME280;11052;43.338;25.502;2023-03-13T09:41:19;101331.56;;;14.82;54.47
2268;BME280;11052;43.338;25.502;2023-03-13T09:43:50;101326.75;;;14.70;50.82
2268;BME280;11052;43.338;25.502;2023-03-13T09:46:24;101326.06;;;15.18;51.20
2268;BME280;11052;43.338;25.502;2023-03-13T09:48:56;101328.34;;;15.28;50.44
2268;BME280;11052;43.338;25.502;2023-03-13T09:51:28;101324.63;;;15.09;49.98
2268;BME280;11052;43.338;25.502;2023-03-13T09:54:00;101330.41;;;14.91;54.27
2268;BME280;11052;43.338;25.502;2023-03-13T09:56:31;101314.56;;;15.23;54.47
2268;BME280;11052;43.338;25.502;2023-03-13T09:59:05;101312.44;;;15.61;49.06
2268;BME280;11052;43.338;25.502;2023-03-13T10:01:38;101320.34;;;15.59;49.35
2268;BME280;11052;43.338;25.502;2023-03-13T10:04:18;101312.81;;;15.24;51.01
2268;BME280;11052;43.338;25.502;2023-03-13T10:06:49;101311.53;;;14.83;50.41
2268;BME280;11052;43.338;25.502;2023-03-13T10:09:18;101311.38;;;14.87;53.71
2268;BME280;11052;43.338;25.502;2023-03-13T10:11:52;101307.56;;;14.71;52.18
2268;BME280;11052;43.338;25.502;2023-03-13T10:14:27;101292.25;;;14.60;50.92
2268;BME280;11052;43.338;25.502;2023-03-13T10:17:00;101292.84;;;14.09;50.11
2268;BME280;11052;43.338;25.502;2023-03-13T10:19:33;101291.88;;;14.14;52.12
2268;BME280;11052;43.338;25.502;2023-03-13T10:22:11;101291.31;;;14.02;50.90
2268;BME280;11052;43.338;25.502;2023-03-13T10:24:45;101294.81;;;14.01;53.08
2268;BME280;11052;43.338;25.502;2023-03-13T10:27:15;101279.19;;;13.70;53.66
2268;BME280;11052;43.338;25.502;2023-03-13T10:29:52;101278.44;;;13.96;51.11
2268;BME280;11052;43.338;25.502;2023-03-13T10:32:19;101284.16;;;13.80;51.07
2268;BME280;11052;43.338;25.502;2023-03-13T10:34:53;101273.81;;;13.44;50.01
2268;BME280;11052;43.338;25.502;2023-03-13T10:37:23;101278.22;;;13.42;51.27
2268;BME280;11052;43.338;25.502;2023-03-13T10:39:51;101273.78;;;13.45;52.16
2268;BME280;11052;43.338;25.502;2023-03-13T10:42:25;101265.72;;;13.22;47.11
2268;BME280;11052;43.338;25.502;2023-03-13T10:44:59;101266.53;;;12.89;48.41
2268;BME280;11052;43.338;25.502;2023-03-13T10:47:27;101268.13;;;12.94;46.44
2268;BME280;11052;43.338;25.502;2023-03-13T10:49:58;101255.22;;;13.25;48.95
2268;BME280;11052;43.338;25.502;2023-03-13T10:52:35;101253.22;;;13.67;50.80
2268;BME280;11052;43.338;25.502;2023-03-13T10:55:10;101246.44;;;13.91;47.96
2268;BME280;11052;43.338;25.502;2023-03-13T10:57:40;101249.72;;;13.68;50.39
2268;BME280;11052;43.338;25.502;2023-03-13T11:00:29;101235.06;;;13.94;49.54
2268;BME280;11052;43.338;25.502;2023-03-13T11:02:56;101237.00;;;14.17;46.88
2268;BME280;11052;43.338;25.502;2023-03-13T11:05:32;101226.28;;;14.55;46.35
2268;BME280;11052;43.338;25.502;2023-03-13T11:08:21;101221.25;;;15.02;46.90
2268;BME280;11052;43.338;25.502;2023-03-13T11:10:55;101216.13;;;15.25;46.29
2268;BME280;11052;43.338;25.502;2023-03-13T11:13:36;101213.38;;;15.03;43.78
2268;BME280;11052;43.338;25.502;2023-03-13T11:16:17;101211.56;;;15.05;44.00
2268;BME280;11052;43.338;25.502;2023-03-13T11:18:55;101217.31;;;14.36;45.67
2268;BME280;11052;43.338;25.502;2023-03-13T11:21:33;101206.09;;;14.32;43.62
2268;BME280;11052;43.338;25.502;2023-03-13T11:24:08;101196.59;;;14.02;45.03
2268;BME280;11052;43.338;25.502;2023-03-13T11:26:41;101191.31;;;14.33;47.32
2268;BME280;11052;43.338;25.502;2023-03-13T11:29:17;101185.19;;;14.34;43.81
2268;BME280;11052;43.338;25.502;2023-03-13T11:31:50;101196.91;;;14.21;44.45
2268;BME280;11052;43.338;25.502;2023-03-13T11:34:25;101187.59;;;14.40;42.24
2268;BME280;11052;43.338;25.502;2023-03-13T11:36:58;101169.97;;;14.20;42.04
2268;BME280;11052;43.338;25.502;2023-03-13T11:39:47;101178.88;;;14.13;45.25
2268;BME280;11052;43.338;25.502;2023-03-13T11:42:34;101182.94;;;13.94;43.85
2268;BME280;11052;43.338;25.502;2023-03-13T11:45:11;101171.00;;;14.15;43.20
2268;BME280;11052;43.338;25.502;2023-03-13T11:47:53;101170.94;;;14.46;42.45
2268;BME280;11052;43.338;25.502;2023-03-13T11:50:33;101168.34;;;14.46;44.88
2268;BME280;11052;43.338;25.502;2023-03-13T11:53:25;101155.16;;;14.75;41.53
2268;BME280;11052;43.338;25.502;2023-03-13T11:56:00;101148.72;;;14.60;35.75
2268;BME280;11052;43.338;25.502;2023-03-13T11:58:43;101150.84;;;14.74;37.52
2268;BME280;11052;43.338;25.502;2023-03-13T12:01:15;101145.41;;;14.55;37.82
2268;BME280;11052;43.338;25.502;2023-03-13T12:03:54;101136.44;;;14.64;37.51
2268;BME280;11052;43.338;25.502;2023-03-13T12:06:25;101140.00;;;14.61;39.41
2268;BME280;11052;43.338;25.502;2023-03-13T12:08:59;101139.13;;;14.61;40.52
2268;BME280;11052;43.338;25.502;2023-03-13T12:11:32;101134.63;;;14.38;39.38
2268;BME280;11052;43.338;25.502;2023-03-13T12:14:05;101133.63;;;14.43;38.95
2268;BME280;11052;43.338;25.502;2023-03-13T12:16:40;101137.63;;;14.54;40.44
2268;BME280;11052;43.338;25.502;2023-03-13T12:19:16;101130.63;;;14.28;37.20
2268;BME280;11052;43.338;25.502;2023-03-13T12:21:47;101123.78;;;14.52;37.73
2268;BME280;11052;43.338;25.502;2023-03-13T12:24:22;101119.78;;;14.40;38.77
2268;BME280;11052;43.338;25.502;2023-03-13T12:26:54;101114.16;;;14.26;36.47
2268;BME280;11052;43.338;25.502;2023-03-13T12:29:32;101114.09;;;14.55;36.12
2268;BME280;11052;43.338;25.502;2023-03-13T12:32:08;101118.25;;;14.61;36.93
2268;BME280;11052;43.338;25.502;2023-03-13T12:34:49;101109.16;;;14.72;35.95
2268;BME280;11052;43.338;25.502;2023-03-13T12:37:22;101105.41;;;15.04;34.76
2268;BME280;11052;43.338;25.502;2023-03-13T12:39:56;101112.81;;;15.17;35.58
2268;BME280;11052;43.338;25.502;2023-03-13T12:42:35;101111.06;;;14.92;33.86
2268;BME280;11052;43.338;25.502;2023-03-13T12:45:09;101110.97;;;14.70;31.64
2268;BME280;11052;43.338;25.502;2023-03-13T12:50:39;101110.88;;;14.47;32.39
2268;BME280;11052;43.338;25.502;2023-03-13T12:56:25;101111.53;;;14.54;32.31
2268;BME280;11052;43.338;25.502;2023-03-13T12:59:01;101102.19;;;14.73;33.68
2268;BME280;11052;43.338;25.502;2023-03-13T13:01:33;101098.25;;;14.61;33.48
2268;BME280;11052;43.338;25.502;2023-03-13T13:04:05;101098.38;;;14.57;33.42
2268;BME280;11052;43.338;25.502;2023-03-13T13:06:54;101101.00;;;14.82;33.36
2268;BME280;11052;43.338;25.502;2023-03-13T13:09:24;101092.81;;;14.67;33.72
2268;BME280;11052;43.338;25.502;2023-03-13T13:11:53;101097.16;;;14.40;34.25